createdAt,value
2019-01-02T00:00:29.758Z,5.20
2019-01-02T00:02:57.300Z,5.40
2019-01-02T00:05:23.830Z,5.30
2019-01-02T00:07:50.652Z,5.10
2019-01-02T00:10:17.355Z,5.30
2019-01-02T00:12:43.857Z,5.30
2019-01-02T00:15:10.619Z,5.20
2019-01-02T00:17:37.145Z,5.30
2019-01-02T00:20:11.652Z,5.30
2019-01-02T00:22:38.189Z,5.40
2019-01-02T00:25:05.100Z,5.40
2019-01-02T00:27:31.960Z,5.40
2019-01-02T00:29:58.472Z,5.50
2019-01-02T00:32:24.978Z,5.60
2019-01-02T00:39:44.917Z,5.70
2019-01-02T00:42:11.434Z,5.20
2019-01-02T00:44:38.467Z,5.50
2019-01-02T00:47:04.980Z,5.60
2019-01-02T00:49:31.524Z,5.70
2019-01-02T00:51:58.008Z,5.40
2019-01-02T00:54:24.538Z,5.60
2019-01-02T00:56:50.943Z,5.70
2019-01-02T00:59:17.762Z,5.60
2019-01-02T01:01:44.302Z,5.80
2019-01-02T01:04:11.249Z,5.70
2019-01-02T01:06:37.658Z,5.80
2019-01-02T01:09:05.067Z,5.70
2019-01-02T01:11:31.553Z,5.70
2019-01-02T01:13:58.380Z,6.00
2019-01-02T01:16:24.939Z,5.90
2019-01-02T01:18:51.746Z,5.80
2019-01-02T01:21:18.233Z,6.00
2019-01-02T01:23:45.177Z,5.90
2019-01-02T01:26:11.668Z,6.10
2019-01-02T01:28:38.395Z,5.50
2019-01-02T01:31:04.892Z,4.20
2019-01-02T01:33:31.528Z,3.10
2019-01-02T01:35:57.974Z,2.50
2019-01-02T01:40:51.493Z,2.50
2019-01-02T01:43:18.165Z,2.80
2019-01-02T01:45:44.668Z,2.60
2019-01-02T01:48:11.375Z,2.50
2019-01-02T01:50:39.296Z,2.30
2019-01-02T01:53:06.189Z,2.40
2019-01-02T01:55:33.139Z,2.50
2019-01-02T01:58:00.320Z,2.60
2019-01-02T02:00:26.905Z,3.00
2019-01-02T02:05:20.287Z,3.90
2019-01-02T02:07:46.795Z,4.30
2019-01-02T02:10:14.325Z,4.40
2019-01-02T02:12:40.857Z,4.60
2019-01-02T02:15:08.328Z,4.70
2019-01-02T02:17:35.186Z,4.90
2019-01-02T02:20:01.756Z,5.10
2019-01-02T02:22:28.386Z,4.70
2019-01-02T02:24:54.781Z,4.90
2019-01-02T02:27:21.355Z,5.00
2019-01-02T02:29:48.101Z,5.20
2019-01-02T02:32:14.612Z,5.10
2019-01-02T02:34:41.052Z,5.10
2019-01-02T02:37:07.799Z,5.20
2019-01-02T02:39:34.353Z,5.20
2019-01-02T02:42:01.164Z,5.00
2019-01-02T02:44:27.995Z,5.00
2019-01-02T02:51:50.931Z,4.80
2019-01-02T02:54:17.538Z,4.90
2019-01-02T02:56:44.380Z,4.90
2019-01-02T02:59:10.978Z,4.80
2019-01-02T03:01:37.852Z,4.80
2019-01-02T03:04:04.666Z,4.40
2019-01-02T03:06:31.539Z,4.40
2019-01-02T03:11:25.119Z,4.70
2019-01-02T03:13:51.948Z,4.90
2019-01-02T03:16:18.849Z,4.80
2019-01-02T03:18:45.457Z,4.40
2019-01-02T03:21:12.425Z,4.30
2019-01-02T03:23:38.928Z,4.50
2019-01-02T03:26:05.462Z,4.70
2019-01-02T03:28:32.424Z,4.80
2019-01-02T03:30:59.207Z,4.60
2019-01-02T03:33:25.887Z,5.00
2019-01-02T03:35:52.457Z,4.80
2019-01-02T03:38:19.003Z,5.00
2019-01-02T03:40:45.584Z,4.90
2019-01-02T03:43:11.999Z,4.90
2019-01-02T03:45:38.676Z,4.90
2019-01-02T03:50:31.965Z,5.00
2019-01-02T03:52:58.528Z,5.10
2019-01-02T03:55:25.040Z,5.10
2019-01-02T03:57:51.519Z,5.00
2019-01-02T04:00:19.038Z,4.40
2019-01-02T04:05:13.430Z,4.30
2019-01-02T04:12:33.363Z,4.70
2019-01-02T04:14:59.792Z,4.90
2019-01-02T04:17:26.352Z,4.90
2019-01-02T04:19:52.899Z,5.00
2019-01-02T04:22:19.370Z,4.90
2019-01-02T04:24:45.880Z,4.80
2019-01-02T04:27:12.286Z,4.90
2019-01-02T04:32:05.488Z,4.90
2019-01-02T04:34:31.986Z,4.90
2019-01-02T04:36:58.409Z,5.00
2019-01-02T04:39:24.967Z,4.90
2019-01-02T04:41:51.361Z,4.90
2019-01-02T04:52:21.547Z,4.80
2019-01-02T04:59:53.536Z,4.70
2019-01-02T05:02:20.110Z,4.80
2019-01-02T05:04:46.569Z,4.80
2019-01-02T05:07:12.973Z,4.70
2019-01-02T05:09:39.536Z,4.70
2019-01-02T05:12:06.045Z,4.60
2019-01-02T05:14:32.672Z,4.60
2019-01-02T05:16:59.057Z,4.50
2019-01-02T05:19:25.575Z,4.50
2019-01-02T05:24:20.763Z,4.60
2019-01-02T05:29:13.772Z,4.60
2019-01-02T05:31:40.259Z,4.60
2019-01-02T05:34:06.836Z,4.50
2019-01-02T05:39:00.243Z,4.40
2019-01-02T05:41:27.270Z,4.40
2019-01-02T05:43:55.573Z,4.50
2019-01-02T05:48:48.724Z,4.30
2019-01-02T05:51:15.205Z,4.30
2019-01-02T05:53:41.642Z,4.40
2019-01-02T05:56:08.167Z,4.40
2019-01-02T06:01:01.676Z,4.40
2019-01-02T06:03:28.266Z,4.40
2019-01-02T06:08:21.412Z,4.20
2019-01-02T06:10:47.914Z,4.10
2019-01-02T06:13:17.328Z,4.30
2019-01-02T06:15:43.837Z,4.40
2019-01-02T06:23:03.880Z,4.30
2019-01-02T06:30:23.873Z,4.20
2019-01-02T06:32:50.406Z,4.30
2019-01-02T06:35:16.875Z,4.20
2019-01-02T06:42:37.389Z,4.20
2019-01-02T06:49:58.545Z,4.00
2019-01-02T06:52:25.114Z,4.10
2019-01-02T06:57:18.546Z,3.90
2019-01-02T06:59:45.251Z,4.00
2019-01-02T07:02:11.769Z,4.10
2019-01-02T07:04:38.277Z,4.20
2019-01-02T07:07:04.838Z,4.00
2019-01-02T07:09:31.433Z,4.10
2019-01-02T07:11:57.933Z,3.80
2019-01-02T07:14:24.660Z,4.00
2019-01-02T07:16:51.124Z,4.00
2019-01-02T07:19:17.991Z,3.80
2019-01-02T07:21:44.618Z,4.00
2019-01-02T07:29:04.746Z,3.80
2019-01-02T07:31:31.416Z,3.90
2019-01-02T07:33:58.768Z,4.00
2019-01-02T07:36:42.346Z,3.70
2019-01-02T07:39:13.664Z,3.80
2019-01-02T07:41:51.111Z,3.70
2019-01-02T07:44:31.172Z,3.80
2019-01-02T07:47:11.817Z,3.80
2019-01-02T07:54:42.741Z,3.70
2019-01-02T07:57:11.220Z,3.60
2019-01-02T08:00:05.735Z,3.70
2019-01-02T08:12:27.801Z,3.70
2019-01-02T08:22:19.881Z,3.60
2019-01-02T08:27:16.692Z,3.60
2019-01-02T08:34:55.077Z,3.60
2019-01-02T08:37:26.493Z,3.60
2019-01-02T08:40:11.303Z,3.80
2019-01-02T08:42:40.237Z,3.80
2019-01-02T08:45:25.060Z,3.70
2019-01-02T08:50:37.320Z,3.70
2019-01-02T08:53:17.718Z,3.50
2019-01-02T08:55:45.937Z,3.60
2019-01-02T09:08:20.710Z,3.60
2019-01-02T09:10:58.016Z,3.60
2019-01-02T09:13:29.079Z,3.70
2019-01-02T09:18:27.060Z,3.70
2019-01-02T09:23:28.034Z,3.80
2019-01-02T09:25:56.648Z,3.40
2019-01-02T09:33:30.592Z,3.70
2019-01-02T09:40:58.379Z,3.70
2019-01-02T09:43:35.846Z,3.60
2019-01-02T09:58:33.752Z,3.60
2019-01-02T10:03:37.950Z,3.60
2019-01-02T10:08:41.939Z,3.60
2019-01-02T10:16:12.636Z,3.60
2019-01-02T10:23:43.745Z,3.70
2019-01-02T10:28:55.466Z,3.70
2019-01-02T10:33:56.540Z,3.90
2019-01-02T11:10:41.916Z,3.60
2019-01-02T11:13:13.182Z,3.60
2019-01-02T11:23:10.893Z,3.60
2019-01-02T11:25:39.343Z,3.60
2019-01-02T11:38:03.604Z,3.60
2019-01-02T11:40:44.006Z,3.70
2019-01-02T11:43:30.399Z,3.60
2019-01-02T11:55:44.083Z,3.60
2019-01-02T12:03:04.074Z,3.70
2019-01-02T12:05:30.590Z,3.70
2019-01-02T12:12:51.697Z,3.70
2019-01-02T12:27:31.652Z,3.50
2019-01-02T12:29:58.075Z,3.60
2019-01-02T12:32:24.527Z,3.70
2019-01-02T12:37:17.970Z,3.60
2019-01-02T12:39:44.482Z,3.70
2019-01-02T12:42:12.816Z,3.50
2019-01-02T12:44:39.354Z,3.50
2019-01-02T12:49:32.575Z,3.60
2019-01-02T12:51:59.178Z,3.70
2019-01-02T12:56:52.411Z,3.60
2019-01-02T13:01:50.306Z,3.60
2019-01-02T13:04:21.606Z,3.60
2019-01-02T13:06:56.033Z,3.60
2019-01-02T13:16:52.309Z,3.60
2019-01-02T13:19:20.597Z,3.50
2019-01-02T13:31:54.111Z,3.60
2019-01-02T13:36:55.330Z,4.00
2019-01-02T13:44:17.196Z,4.70
2019-01-02T13:47:02.333Z,4.60
2019-01-02T13:49:36.697Z,4.60
2019-01-02T13:52:03.851Z,4.20
2019-01-02T14:04:17.880Z,4.50
2019-01-02T14:06:44.514Z,4.30
2019-01-02T14:11:37.991Z,4.30
2019-01-02T14:14:04.606Z,4.30
2019-01-02T14:18:57.914Z,4.30
2019-01-02T14:26:18.056Z,4.20
2019-01-02T14:33:38.575Z,3.30
2019-01-02T14:43:25.378Z,3.40
2019-01-02T14:45:52.220Z,3.20
2019-01-02T14:50:47.468Z,3.20
2019-01-02T14:53:13.911Z,3.10
2019-01-02T14:55:40.518Z,3.10
2019-01-02T15:03:00.383Z,3.10
2019-01-02T15:05:26.937Z,3.20
2019-01-02T15:17:42.439Z,3.20
2019-01-02T15:20:09.011Z,3.10
2019-01-02T15:27:28.743Z,3.10
2019-01-02T15:32:36.251Z,3.20
2019-01-02T15:35:03.211Z,3.10
2019-01-02T15:37:29.432Z,3.10
2019-01-02T15:39:55.941Z,3.10
2019-01-02T15:42:23.337Z,3.10
2019-01-02T15:54:36.479Z,3.20
2019-01-02T15:57:02.764Z,3.10
2019-01-02T15:59:29.003Z,3.10
2019-01-02T16:01:55.225Z,3.10
2019-01-02T16:06:48.099Z,2.90
2019-01-02T16:09:14.661Z,3.10
2019-01-02T16:11:40.889Z,3.10
2019-01-02T16:14:07.149Z,3.00
2019-01-02T16:16:33.303Z,3.00
2019-01-02T16:23:53.048Z,3.10
2019-01-02T16:28:46.292Z,3.10
2019-01-02T16:31:12.528Z,3.20
2019-01-02T16:33:38.725Z,3.00
2019-01-02T16:38:35.436Z,2.90
2019-01-02T16:43:28.663Z,3.00
2019-01-02T16:45:55.017Z,3.10
2019-01-02T16:48:23.243Z,3.20
2019-01-02T16:53:18.003Z,3.10
2019-01-02T16:55:44.383Z,3.00
2019-01-02T17:00:37.558Z,3.10
2019-01-02T17:03:03.774Z,3.10
2019-01-02T17:10:23.277Z,3.20
2019-01-02T17:12:49.673Z,3.10
2019-01-02T17:25:02.767Z,3.20
2019-01-02T17:32:22.979Z,3.10
2019-01-02T17:34:49.228Z,2.90
2019-01-02T17:37:15.574Z,2.90
2019-01-02T17:39:41.950Z,3.10
2019-01-02T17:42:11.610Z,3.10
2019-01-02T17:44:38.063Z,3.00
2019-01-02T17:47:04.669Z,3.10
2019-01-02T17:51:57.547Z,3.10
2019-01-02T17:54:23.808Z,3.20
2019-01-02T17:56:50.020Z,3.10
2019-01-02T18:01:43.051Z,3.10
2019-01-02T18:06:35.991Z,3.40
2019-01-02T18:09:04.527Z,3.30
2019-01-02T18:11:30.735Z,3.20
2019-01-02T18:18:50.248Z,3.20
2019-01-02T18:21:17.287Z,3.20
2019-01-02T18:23:44.615Z,3.20
2019-01-02T18:26:10.997Z,3.30
2019-01-02T18:31:04.225Z,3.20
2019-01-02T18:33:30.736Z,3.30
2019-01-02T18:35:56.978Z,3.30
2019-01-02T18:38:37.430Z,3.30
2019-01-02T18:41:04.088Z,3.10
2019-01-02T18:43:30.475Z,3.10
2019-01-02T18:45:56.814Z,3.10
2019-01-02T18:48:23.144Z,3.10
2019-01-02T18:50:49.364Z,2.90
2019-01-02T18:58:08.836Z,3.10
2019-01-02T19:00:35.085Z,3.00
2019-01-02T19:03:01.313Z,2.90
2019-01-02T19:05:27.614Z,2.90
2019-01-02T19:07:53.804Z,3.10
2019-01-02T19:10:20.049Z,3.10
2019-01-02T19:12:46.315Z,3.10
2019-01-02T19:15:12.678Z,3.10
2019-01-02T19:20:06.406Z,3.00
2019-01-02T19:22:32.752Z,3.00
2019-01-02T19:24:58.995Z,3.10
2019-01-02T19:27:25.250Z,3.20
2019-01-02T19:29:51.463Z,3.60
2019-01-02T19:32:17.708Z,3.20
2019-01-02T19:34:44.290Z,3.10
2019-01-02T19:39:37.272Z,3.00
2019-01-02T19:42:03.632Z,3.20
2019-01-02T19:44:30.128Z,3.30
2019-01-02T19:49:23.563Z,3.20
2019-01-02T19:54:16.393Z,3.10
2019-01-02T19:59:09.219Z,3.10
2019-01-02T20:01:35.471Z,3.10
2019-01-02T20:04:01.689Z,3.20
2019-01-02T20:06:27.847Z,3.10
2019-01-02T20:08:54.085Z,3.20
2019-01-02T20:11:20.329Z,3.20
2019-01-02T20:13:46.784Z,2.90
2019-01-02T20:16:13.173Z,2.90
2019-01-02T20:18:39.453Z,3.20
2019-01-02T20:21:05.657Z,3.10
2019-01-02T20:23:31.892Z,3.10
2019-01-02T20:25:58.108Z,3.20
2019-01-02T20:28:24.332Z,3.70
2019-01-02T20:30:50.547Z,3.10
2019-01-02T20:33:17.362Z,3.20
2019-01-02T20:35:46.793Z,3.20
2019-01-02T20:38:13.044Z,3.30
2019-01-02T20:40:39.394Z,3.20
2019-01-02T20:43:05.610Z,3.20
2019-01-02T20:45:31.850Z,3.10
2019-01-02T20:50:25.500Z,3.20
2019-01-02T20:52:51.714Z,3.20
2019-01-02T20:55:18.233Z,3.10
2019-01-02T20:57:44.718Z,3.10
2019-01-02T21:00:10.945Z,3.60
2019-01-02T21:02:37.213Z,3.20
2019-01-02T21:05:04.152Z,3.10
2019-01-02T21:07:30.615Z,3.20
2019-01-02T21:09:56.840Z,3.20
2019-01-02T21:12:23.073Z,3.00
2019-01-02T21:19:58.032Z,3.00
2019-01-02T21:24:51.214Z,3.00
2019-01-02T21:27:17.484Z,3.10
2019-01-02T21:29:43.691Z,3.00
2019-01-02T21:32:09.966Z,3.00
2019-01-02T21:37:02.848Z,3.50
2019-01-02T21:39:29.192Z,3.00
2019-01-02T21:41:55.551Z,2.90
2019-01-02T21:44:21.939Z,3.00
2019-01-02T21:46:49.282Z,2.90
2019-01-02T21:49:15.915Z,3.20
2019-01-02T21:51:42.645Z,3.00
2019-01-02T21:54:08.878Z,2.90
2019-01-02T21:56:35.662Z,3.00
2019-01-02T21:59:02.064Z,2.80
2019-01-02T22:01:30.234Z,2.80
2019-01-02T22:03:56.616Z,2.80
2019-01-02T22:06:23.334Z,2.80
2019-01-02T22:08:49.658Z,2.70
2019-01-02T22:11:17.922Z,2.90
2019-01-02T22:13:44.700Z,3.10
2019-01-02T22:16:10.939Z,3.10
2019-01-02T22:18:40.172Z,3.20
2019-01-02T22:21:06.407Z,3.00
2019-01-02T22:25:59.388Z,3.00
2019-01-02T22:28:25.672Z,3.10
2019-01-02T22:30:52.450Z,2.90
2019-01-02T22:33:18.859Z,3.40
2019-01-02T22:35:45.433Z,2.90
2019-01-02T22:38:12.980Z,3.00
2019-01-02T22:40:41.313Z,2.90
2019-01-02T22:43:09.418Z,3.10
2019-01-02T22:45:35.776Z,2.90
2019-01-02T22:48:02.193Z,3.00
2019-01-02T22:50:28.417Z,3.10
2019-01-02T22:52:57.086Z,2.90
2019-01-02T22:55:23.256Z,2.90
2019-01-02T22:57:49.566Z,2.90
2019-01-02T23:02:46.337Z,2.90
2019-01-02T23:05:29.646Z,2.90
2019-01-02T23:08:00.786Z,3.00
2019-01-02T23:10:34.667Z,2.90
2019-01-02T23:13:20.693Z,2.90
2019-01-02T23:16:05.455Z,2.90
2019-01-02T23:18:45.757Z,2.90
2019-01-02T23:21:30.166Z,2.80
2019-01-02T23:26:48.781Z,3.20
2019-01-02T23:32:00.615Z,2.90
2019-01-02T23:34:34.783Z,2.90
2019-01-02T23:37:17.970Z,2.80
2019-01-02T23:42:23.797Z,2.90
2019-01-02T23:45:08.485Z,2.90
2019-01-02T23:47:48.414Z,2.80
2019-01-02T23:50:33.051Z,2.80
2019-01-02T23:53:11.821Z,2.90
2019-01-02T23:55:42.642Z,2.80
2019-01-02T23:58:16.723Z,2.80
